sensor_id;sensor_type;location;lat;lon;timestamp;temperature;humidity
71627;DHT22;59475;52.464;13.590;2023-03-14T00:01:49;12.16;81.88
71627;DHT22;59475;52.464;13.590;2023-03-14T00:04:16;12.15;82.02
71627;DHT22;59475;52.464;13.590;2023-03-14T00:06:41;12.21;81.86
71627;DHT22;59475;52.464;13.590;2023-03-14T00:09:07;12.21;81.89
71627;DHT22;59475;52.464;13.590;2023-03-14T00:11:33;12.21;81.99
71627;DHT22;59475;52.464;13.590;2023-03-14T00:13:58;12.26;81.85
71627;DHT22;59475;52.464;13.590;2023-03-14T00:16:25;12.22;82.20
71627;DHT22;59475;52.464;13.590;2023-03-14T00:18:51;12.24;82.14
71627;DHT22;59475;52.464;13.590;2023-03-14T00:21:17;12.15;82.40
71627;DHT22;59475;52.464;13.590;2023-03-14T00:23:42;12.14;82.55
71627;DHT22;59475;52.464;13.590;2023-03-14T00:26:16;12.05;82.84
71627;DHT22;59475;52.464;13.590;2023-03-14T00:28:43;11.94;83.26
71627;DHT22;59475;52.464;13.590;2023-03-14T00:31:11;11.97;83.26
71627;DHT22;59475;52.464;13.590;2023-03-14T00:33:37;11.94;83.40
71627;DHT22;59475;52.464;13.590;2023-03-14T00:36:04;11.87;83.61
71627;DHT22;59475;52.464;13.590;2023-03-14T00:38:31;11.84;83.75
71627;DHT22;59475;52.464;13.590;2023-03-14T00:40:57;11.84;83.88
71627;DHT22;59475;52.464;13.590;2023-03-14T00:43:23;11.78;84.04
71627;DHT22;59475;52.464;13.590;2023-03-14T00:45:50;11.67;84.34
71627;DHT22;59475;52.464;13.590;2023-03-14T00:48:16;11.75;84.33
71627;DHT22;59475;52.464;13.590;2023-03-14T00:50:42;11.71;84.48
71627;DHT22;59475;52.464;13.590;2023-03-14T00:53:07;11.73;84.63
71627;DHT22;59475;52.464;13.590;2023-03-14T00:55:37;11.64;84.73
71627;DHT22;59475;52.464;13.590;2023-03-14T00:58:02;11.61;84.92
71627;DHT22;59475;52.464;13.590;2023-03-14T01:00:28;11.57;85.16
71627;DHT22;59475;52.464;13.590;2023-03-14T01:02:53;11.66;85.00
71627;DHT22;59475;52.464;13.590;2023-03-14T01:05:18;11.56;85.16
71627;DHT22;59475;52.464;13.590;2023-03-14T01:07:44;11.53;85.40
71627;DHT22;59475;52.464;13.590;2023-03-14T01:10:10;11.44;85.58
71627;DHT22;59475;52.464;13.590;2023-03-14T01:12:35;11.44;85.62
71627;DHT22;59475;52.464;13.590;2023-03-14T01:15:01;11.46;85.61
71627;DHT22;59475;52.464;13.590;2023-03-14T01:17:26;11.47;85.49
71627;DHT22;59475;52.464;13.590;2023-03-14T01:19:51;11.46;85.60
71627;DHT22;59475;52.464;13.590;2023-03-14T01:22:17;11.49;85.54
71627;DHT22;59475;52.464;13.590;2023-03-14T01:24:42;11.43;85.72
71627;DHT22;59475;52.464;13.590;2023-03-14T01:27:08;11.44;85.68
71627;DHT22;59475;52.464;13.590;2023-03-14T01:29:33;11.50;85.69
71627;DHT22;59475;52.464;13.590;2023-03-14T01:31:58;11.50;85.79
71627;DHT22;59475;52.464;13.590;2023-03-14T01:34:24;11.51;85.79
71627;DHT22;59475;52.464;13.590;2023-03-14T01:36:49;11.53;85.61
71627;DHT22;59475;52.464;13.590;2023-03-14T01:39:14;11.54;85.66
71627;DHT22;59475;52.464;13.590;2023-03-14T01:41:40;11.53;85.69
71627;DHT22;59475;52.464;13.590;2023-03-14T01:44:09;11.54;85.80
71627;DHT22;59475;52.464;13.590;2023-03-14T01:49:16;11.56;85.79
71627;DHT22;59475;52.464;13.590;2023-03-14T01:51:49;11.56;85.74
71627;DHT22;59475;52.464;13.590;2023-03-14T01:54:27;11.54;85.83
71627;DHT22;59475;52.464;13.590;2023-03-14T01:57:06;11.53;85.91
71627;DHT22;59475;52.464;13.590;2023-03-14T01:59:34;11.51;85.91
71627;DHT22;59475;52.464;13.590;2023-03-14T02:02:00;11.47;86.07
71627;DHT22;59475;52.464;13.590;2023-03-14T02:04:28;11.49;85.88
71627;DHT22;59475;52.464;13.590;2023-03-14T02:07:03;11.49;85.94
71627;DHT22;59475;52.464;13.590;2023-03-14T02:09:30;11.43;86.00
71627;DHT22;59475;52.464;13.590;2023-03-14T02:11:55;11.46;85.96
71627;DHT22;59475;52.464;13.590;2023-03-14T02:14:31;11.36;86.17
71627;DHT22;59475;52.464;13.590;2023-03-14T02:16:57;11.37;86.09
71627;DHT22;59475;52.464;13.590;2023-03-14T02:19:32;11.39;86.04
71627;DHT22;59475;52.464;13.590;2023-03-14T02:22:06;11.29;86.30
71627;DHT22;59475;52.464;13.590;2023-03-14T02:27:14;11.23;86.52
71627;DHT22;59475;52.464;13.590;2023-03-14T02:29:49;11.18;86.62
71627;DHT22;59475;52.464;13.590;2023-03-14T02:32:17;11.19;86.59
71627;DHT22;59475;52.464;13.590;2023-03-14T02:34:43;11.15;86.67
71627;DHT22;59475;52.464;13.590;2023-03-14T02:37:11;11.12;86.74
71627;DHT22;59475;52.464;13.590;2023-03-14T02:39:40;11.15;86.71
71627;DHT22;59475;52.464;13.590;2023-03-14T02:42:06;11.15;86.74
71627;DHT22;59475;52.464;13.590;2023-03-14T02:44:32;11.15;86.77
71627;DHT22;59475;52.464;13.590;2023-03-14T02:46:57;11.13;86.80
71627;DHT22;59475;52.464;13.590;2023-03-14T02:49:23;11.11;86.84
71627;DHT22;59475;52.464;13.590;2023-03-14T02:51:49;11.09;86.91
71627;DHT22;59475;52.464;13.590;2023-03-14T02:54:15;11.12;86.80
71627;DHT22;59475;52.464;13.590;2023-03-14T02:56:41;11.12;86.73
71627;DHT22;59475;52.464;13.590;2023-03-14T02:59:06;11.13;86.79
71627;DHT22;59475;52.464;13.590;2023-03-14T03:01:33;11.08;86.84
71627;DHT22;59475;52.464;13.590;2023-03-14T03:03:59;11.08;86.78
71627;DHT22;59475;52.464;13.590;2023-03-14T03:06:25;11.08;86.81
71627;DHT22;59475;52.464;13.590;2023-03-14T03:08:50;11.02;86.65
71627;DHT22;59475;52.464;13.590;2023-03-14T03:11:16;11.11;86.57
71627;DHT22;59475;52.464;13.590;2023-03-14T03:13:41;11.06;86.53
71627;DHT22;59475;52.464;13.590;2023-03-14T03:16:07;11.12;86.33
71627;DHT22;59475;52.464;13.590;2023-03-14T03:18:32;11.11;86.41
71627;DHT22;59475;52.464;13.590;2023-03-14T03:21:02;11.08;86.32
71627;DHT22;59475;52.464;13.590;2023-03-14T03:23:28;11.08;86.32
71627;DHT22;59475;52.464;13.590;2023-03-14T03:25:54;10.99;86.45
71627;DHT22;59475;52.464;13.590;2023-03-14T03:28:20;11.02;86.31
71627;DHT22;59475;52.464;13.590;2023-03-14T03:30:45;11.06;86.25
71627;DHT22;59475;52.464;13.590;2023-03-14T03:33:11;11.08;86.18
71627;DHT22;59475;52.464;13.590;2023-03-14T03:35:45;11.04;86.23
71627;DHT22;59475;52.464;13.590;2023-03-14T03:38:11;11.06;86.10
71627;DHT22;59475;52.464;13.590;2023-03-14T03:40:37;11.15;85.76
71627;DHT22;59475;52.464;13.590;2023-03-14T03:43:02;11.16;85.61
71627;DHT22;59475;52.464;13.590;2023-03-14T03:45:29;11.22;85.38
71627;DHT22;59475;52.464;13.590;2023-03-14T03:47:54;11.20;85.36
71627;DHT22;59475;52.464;13.590;2023-03-14T03:50:19;11.22;85.29
71627;DHT22;59475;52.464;13.590;2023-03-14T03:52:45;11.27;85.02
71627;DHT22;59475;52.464;13.590;2023-03-14T03:55:10;11.29;84.86
71627;DHT22;59475;52.464;13.590;2023-03-14T03:57:35;11.25;84.80
71627;DHT22;59475;52.464;13.590;2023-03-14T04:00:01;11.25;84.86
71627;DHT22;59475;52.464;13.590;2023-03-14T04:02:26;11.19;84.96
71627;DHT22;59475;52.464;13.590;2023-03-14T04:04:52;11.20;84.95
71627;DHT22;59475;52.464;13.590;2023-03-14T04:07:17;11.23;84.77
71627;DHT22;59475;52.464;13.590;2023-03-14T04:09:43;11.25;84.71
71627;DHT22;59475;52.464;13.590;2023-03-14T04:12:08;11.20;84.75
71627;DHT22;59475;52.464;13.590;2023-03-14T04:14:36;11.15;84.90
71627;DHT22;59475;52.464;13.590;2023-03-14T04:17:01;11.16;84.81
71627;DHT22;59475;52.464;13.590;2023-03-14T04:19:27;11.13;84.67
71627;DHT22;59475;52.464;13.590;2023-03-14T04:21:52;11.13;84.69
71627;DHT22;59475;52.464;13.590;2023-03-14T04:24:18;11.12;84.70
71627;DHT22;59475;52.464;13.590;2023-03-14T04:26:43;11.16;84.53
71627;DHT22;59475;52.464;13.590;2023-03-14T04:29:08;11.12;84.46
71627;DHT22;59475;52.464;13.590;2023-03-14T04:31:34;11.15;84.43
71627;DHT22;59475;52.464;13.590;2023-03-14T04:33:59;11.18;84.27
71627;DHT22;59475;52.464;13.590;2023-03-14T04:36:25;11.13;84.42
71627;DHT22;59475;52.464;13.590;2023-03-14T04:38:50;11.06;84.49
71627;DHT22;59475;52.464;13.590;2023-03-14T04:41:15;11.08;84.38
71627;DHT22;59475;52.464;13.590;2023-03-14T04:43:41;11.06;84.31
71627;DHT22;59475;52.464;13.590;2023-03-14T04:46:06;11.06;84.26
71627;DHT22;59475;52.464;13.590;2023-03-14T04:48:31;10.99;84.41
71627;DHT22;59475;52.464;13.590;2023-03-14T04:50:57;11.01;84.44
71627;DHT22;59475;52.464;13.590;2023-03-14T04:53:22;10.96;84.52
71627;DHT22;59475;52.464;13.590;2023-03-14T04:55:50;10.99;84.39
71627;DHT22;59475;52.464;13.590;2023-03-14T04:58:15;10.95;84.27
71627;DHT22;59475;52.464;13.590;2023-03-14T05:00:40;10.92;84.27
71627;DHT22;59475;52.464;13.590;2023-03-14T05:03:06;10.89;84.38
71627;DHT22;59475;52.464;13.590;2023-03-14T05:05:31;10.84;84.44
71627;DHT22;59475;52.464;13.590;2023-03-14T05:07:57;10.81;84.42
71627;DHT22;59475;52.464;13.590;2023-03-14T05:10:22;10.77;84.57
71627;DHT22;59475;52.464;13.590;2023-03-14T05:12:47;10.84;84.37
71627;DHT22;59475;52.464;13.590;2023-03-14T05:15:13;10.78;84.21
71627;DHT22;59475;52.464;13.590;2023-03-14T05:17:38;10.77;84.36
71627;DHT22;59475;52.464;13.590;2023-03-14T05:20:04;10.79;84.03
71627;DHT22;59475;52.464;13.590;2023-03-14T05:22:39;10.82;83.69
71627;DHT22;59475;52.464;13.590;2023-03-14T05:25:05;10.78;83.84
71627;DHT22;59475;52.464;13.590;2023-03-14T05:27:31;10.78;83.66
71627;DHT22;59475;52.464;13.590;2023-03-14T05:29:56;10.77;83.68
71627;DHT22;59475;52.464;13.590;2023-03-14T05:32:22;10.77;83.51
71627;DHT22;59475;52.464;13.590;2023-03-14T05:34:47;10.75;83.57
71627;DHT22;59475;52.464;13.590;2023-03-14T05:37:13;10.77;83.41
71627;DHT22;59475;52.464;13.590;2023-03-14T05:39:38;10.75;83.41
71627;DHT22;59475;52.464;13.590;2023-03-14T05:42:04;10.75;83.09
71627;DHT22;59475;52.464;13.590;2023-03-14T05:44:29;10.79;82.87
71627;DHT22;59475;52.464;13.590;2023-03-14T05:46:55;10.84;82.47
71627;DHT22;59475;52.464;13.590;2023-03-14T05:49:20;10.89;82.26
71627;DHT22;59475;52.464;13.590;2023-03-14T05:51:45;10.89;82.15
71627;DHT22;59475;52.464;13.590;2023-03-14T05:54:11;10.91;82.07
71627;DHT22;59475;52.464;13.590;2023-03-14T05:56:36;10.87;82.15
71627;DHT22;59475;52.464;13.590;2023-03-14T05:59:02;10.87;81.84
71627;DHT22;59475;52.464;13.590;2023-03-14T06:01:29;10.89;81.63
71627;DHT22;59475;52.464;13.590;2023-03-14T06:03:54;10.92;81.53
71627;DHT22;59475;52.464;13.590;2023-03-14T06:06:20;10.95;81.37
71627;DHT22;59475;52.464;13.590;2023-03-14T06:08:45;10.95;81.20
71627;DHT22;59475;52.464;13.590;2023-03-14T06:11:10;10.99;80.89
71627;DHT22;59475;52.464;13.590;2023-03-14T06:13:36;10.96;81.00
71627;DHT22;59475;52.464;13.590;2023-03-14T06:16:01;10.98;80.98
71627;DHT22;59475;52.464;13.590;2023-03-14T06:18:27;10.96;80.85
71627;DHT22;59475;52.464;13.590;2023-03-14T06:20:56;11.05;80.40
71627;DHT22;59475;52.464;13.590;2023-03-14T06:23:22;11.06;80.39
71627;DHT22;59475;52.464;13.590;2023-03-14T06:25:47;11.11;80.29
71627;DHT22;59475;52.464;13.590;2023-03-14T06:28:13;11.15;80.00
71627;DHT22;59475;52.464;13.590;2023-03-14T06:30:38;11.15;79.76
71627;DHT22;59475;52.464;13.590;2023-03-14T06:33:04;11.15;79.94
71627;DHT22;59475;52.464;13.590;2023-03-14T06:35:29;11.18;79.69
71627;DHT22;59475;52.464;13.590;2023-03-14T06:37:54;11.22;79.49
71627;DHT22;59475;52.464;13.590;2023-03-14T06:40:20;11.23;79.39
71627;DHT22;59475;52.464;13.590;2023-03-14T06:42:46;11.26;79.24
71627;DHT22;59475;52.464;13.590;2023-03-14T06:45:12;11.32;78.95
71627;DHT22;59475;52.464;13.590;2023-03-14T06:47:37;11.32;78.88
71627;DHT22;59475;52.464;13.590;2023-03-14T06:50:06;11.34;78.93
71627;DHT22;59475;52.464;13.590;2023-03-14T06:52:32;11.44;78.35
71627;DHT22;59475;52.464;13.590;2023-03-14T06:54:57;11.43;78.40
71627;DHT22;59475;52.464;13.590;2023-03-14T06:57:22;11.49;78.03
71627;DHT22;59475;52.464;13.590;2023-03-14T06:59:48;11.50;78.10
71627;DHT22;59475;52.464;13.590;2023-03-14T07:02:13;11.59;77.82
71627;DHT22;59475;52.464;13.590;2023-03-14T07:04:39;11.63;77.76
71627;DHT22;59475;52.464;13.590;2023-03-14T07:07:05;11.64;77.60
71627;DHT22;59475;52.464;13.590;2023-03-14T07:09:30;11.67;77.48
71627;DHT22;59475;52.464;13.590;2023-03-14T07:11:56;11.82;76.96
71627;DHT22;59475;52.464;13.590;2023-03-14T07:14:21;11.89;76.94
71627;DHT22;59475;52.464;13.590;2023-03-14T07:16:47;11.95;76.47
71627;DHT22;59475;52.464;13.590;2023-03-14T07:19:12;11.92;76.66
71627;DHT22;59475;52.464;13.590;2023-03-14T07:21:37;11.95;76.55
71627;DHT22;59475;52.464;13.590;2023-03-14T07:24:03;11.89;76.45
71627;DHT22;59475;52.464;13.590;2023-03-14T07:26:28;11.94;76.53
71627;DHT22;59475;52.464;13.590;2023-03-14T07:28:54;11.89;76.81
71627;DHT22;59475;52.464;13.590;2023-03-14T07:31:19;11.89;76.56
71627;DHT22;59475;52.464;13.590;2023-03-14T07:33:45;11.91;76.61
71627;DHT22;59475;52.464;13.590;2023-03-14T07:36:10;11.95;76.51
71627;DHT22;59475;52.464;13.590;2023-03-14T07:38:35;12.02;76.33
71627;DHT22;59475;52.464;13.590;2023-03-14T07:41:03;12.06;76.28
71627;DHT22;59475;52.464;13.590;2023-03-14T07:43:28;12.06;76.12
71627;DHT22;59475;52.464;13.590;2023-03-14T07:45:54;12.04;76.11
71627;DHT22;59475;52.464;13.590;2023-03-14T07:48:19;12.06;76.39
71627;DHT22;59475;52.464;13.590;2023-03-14T07:50:48;12.04;76.24
71627;DHT22;59475;52.464;13.590;2023-03-14T07:53:14;12.04;76.26
71627;DHT22;59475;52.464;13.590;2023-03-14T07:55:39;12.08;76.18
71627;DHT22;59475;52.464;13.590;2023-03-14T07:58:05;12.04;76.15
71627;DHT22;59475;52.464;13.590;2023-03-14T08:00:31;12.09;75.87
71627;DHT22;59475;52.464;13.590;2023-03-14T08:02:57;12.14;75.86
71627;DHT22;59475;52.464;13.590;2023-03-14T08:05:22;12.19;75.93
71627;DHT22;59475;52.464;13.590;2023-03-14T08:07:47;12.45;75.07
71627;DHT22;59475;52.464;13.590;2023-03-14T08:10:13;12.79;74.17
71627;DHT22;59475;52.464;13.590;2023-03-14T08:12:46;13.05;73.48
71627;DHT22;59475;52.464;13.590;2023-03-14T08:15:11;13.12;72.74
71627;DHT22;59475;52.464;13.590;2023-03-14T08:17:37;13.16;72.89
71627;DHT22;59475;52.464;13.590;2023-03-14T08:20:02;13.19;72.43
71627;DHT22;59475;52.464;13.590;2023-03-14T08:22:31;13.05;72.77
71627;DHT22;59475;52.464;13.590;2023-03-14T08:24:57;13.00;73.16
71627;DHT22;59475;52.464;13.590;2023-03-14T08:27:22;13.00;73.12
71627;DHT22;59475;52.464;13.590;2023-03-14T08:29:47;12.97;73.25
71627;DHT22;59475;52.464;13.590;2023-03-14T08:32:13;12.90;73.45
71627;DHT22;59475;52.464;13.590;2023-03-14T08:34:38;12.88;73.38
71627;DHT22;59475;52.464;13.590;2023-03-14T08:37:05;12.84;73.38
71627;DHT22;59475;52.464;13.590;2023-03-14T08:39:30;12.79;73.77
71627;DHT22;59475;52.464;13.590;2023-03-14T08:41:56;12.77;73.66
71627;DHT22;59475;52.464;13.590;2023-03-14T08:44:21;12.68;73.69
71627;DHT22;59475;52.464;13.590;2023-03-14T08:46:46;12.63;73.99
71627;DHT22;59475;52.464;13.590;2023-03-14T08:49:12;12.60;74.12
71627;DHT22;59475;52.464;13.590;2023-03-14T08:51:38;12.54;74.43
71627;DHT22;59475;52.464;13.590;2023-03-14T08:54:03;12.47;74.74
71627;DHT22;59475;52.464;13.590;2023-03-14T08:56:29;12.50;74.51
71627;DHT22;59475;52.464;13.590;2023-03-14T08:58:54;12.53;74.67
71627;DHT22;59475;52.464;13.590;2023-03-14T09:01:19;12.63;74.09
71627;DHT22;59475;52.464;13.590;2023-03-14T09:03:46;12.70;73.93
71627;DHT22;59475;52.464;13.590;2023-03-14T09:06:13;12.77;73.89
71627;DHT22;59475;52.464;13.590;2023-03-14T09:08:38;12.74;73.72
71627;DHT22;59475;52.464;13.590;2023-03-14T09:11:06;12.81;73.79
71627;DHT22;59475;52.464;13.590;2023-03-14T09:13:32;12.81;73.88
71627;DHT22;59475;52.464;13.590;2023-03-14T09:15:57;12.98;73.72
71627;DHT22;59475;52.464;13.590;2023-03-14T09:18:23;13.16;73.23
71627;DHT22;59475;52.464;13.590;2023-03-14T09:20:48;13.42;72.05
71627;DHT22;59475;52.464;13.590;2023-03-14T09:23:14;13.53;71.43
71627;DHT22;59475;52.464;13.590;2023-03-14T09:25:40;13.47;70.86
71627;DHT22;59475;52.464;13.590;2023-03-14T09:28:05;13.67;70.38
71627;DHT22;59475;52.464;13.590;2023-03-14T09:30:31;13.97;69.71
71627;DHT22;59475;52.464;13.590;2023-03-14T09:32:56;14.46;68.75
71627;DHT22;59475;52.464;13.590;2023-03-14T09:35:23;14.81;67.29
71627;DHT22;59475;52.464;13.590;2023-03-14T09:37:48;15.34;66.03
71627;DHT22;59475;52.464;13.590;2023-03-14T09:40:18;15.28;64.54
71627;DHT22;59475;52.464;13.590;2023-03-14T09:42:47;15.41;64.39
71627;DHT22;59475;52.464;13.590;2023-03-14T09:45:23;15.46;63.56
71627;DHT22;59475;52.464;13.590;2023-03-14T09:47:50;15.55;63.20
71627;DHT22;59475;52.464;13.590;2023-03-14T09:50:16;15.56;62.72
71627;DHT22;59475;52.464;13.590;2023-03-14T09:52:45;15.66;62.27
71627;DHT22;59475;52.464;13.590;2023-03-14T09:55:14;15.82;61.78
71627;DHT22;59475;52.464;13.590;2023-03-14T09:57:41;15.91;60.60
71627;DHT22;59475;52.464;13.590;2023-03-14T10:00:19;15.61;61.35
71627;DHT22;59475;52.464;13.590;2023-03-14T10:02:51;15.21;62.48
71627;DHT22;59475;52.464;13.590;2023-03-14T10:05:20;14.80;63.33
71627;DHT22;59475;52.464;13.590;2023-03-14T10:07:46;14.60;63.89
71627;DHT22;59475;52.464;13.590;2023-03-14T10:10:18;14.45;64.70
71627;DHT22;59475;52.464;13.590;2023-03-14T10:12:46;14.33;65.13
71627;DHT22;59475;52.464;13.590;2023-03-14T10:15:15;14.21;65.08
71627;DHT22;59475;52.464;13.590;2023-03-14T10:17:49;14.10;65.66
71627;DHT22;59475;52.464;13.590;2023-03-14T10:22:53;14.01;65.73
71627;DHT22;59475;52.464;13.590;2023-03-14T10:25:29;13.93;66.11
71627;DHT22;59475;52.464;13.590;2023-03-14T10:27:55;13.87;65.93
71627;DHT22;59475;52.464;13.590;2023-03-14T10:30:39;13.84;66.38
71627;DHT22;59475;52.464;13.590;2023-03-14T10:33:24;13.81;66.45
71627;DHT22;59475;52.464;13.590;2023-03-14T10:36:05;13.80;66.14
71627;DHT22;59475;52.464;13.590;2023-03-14T10:38:34;13.80;65.91
71627;DHT22;59475;52.464;13.590;2023-03-14T10:41:00;13.80;65.84
71627;DHT22;59475;52.464;13.590;2023-03-14T10:43:31;13.78;65.96
71627;DHT22;59475;52.464;13.590;2023-03-14T10:46:02;13.74;65.19
71627;DHT22;59475;52.464;13.590;2023-03-14T10:48:33;13.69;65.96
71627;DHT22;59475;52.464;13.590;2023-03-14T10:53:25;13.65;65.45
71627;DHT22;59475;52.464;13.590;2023-03-14T10:55:51;13.66;66.02
71627;DHT22;59475;52.464;13.590;2023-03-14T10:58:25;13.65;65.83
71627;DHT22;59475;52.464;13.590;2023-03-14T11:00:57;13.65;65.90
71627;DHT22;59475;52.464;13.590;2023-03-14T11:03:27;13.60;66.20
71627;DHT22;59475;52.464;13.590;2023-03-14T11:05:56;13.59;66.74
71627;DHT22;59475;52.464;13.590;2023-03-14T11:08:27;13.60;66.66
71627;DHT22;59475;52.464;13.590;2023-03-14T11:11:02;13.57;67.14
71627;DHT22;59475;52.464;13.590;2023-03-14T11:19:46;13.52;68.03
71627;DHT22;59475;52.464;13.590;2023-03-14T11:25:21;13.67;67.88
71627;DHT22;59475;52.464;13.590;2023-03-14T11:28:26;13.65;67.90
71627;DHT22;59475;52.464;13.590;2023-03-14T11:31:03;13.67;68.15
71627;DHT22;59475;52.464;13.590;2023-03-14T11:33:47;13.67;68.67
71627;DHT22;59475;52.464;13.590;2023-03-14T11:36:40;13.55;69.27
71627;DHT22;59475;52.464;13.590;2023-03-14T11:39:17;13.52;69.67
71627;DHT22;59475;52.464;13.590;2023-03-14T11:41:51;13.57;69.51
71627;DHT22;59475;52.464;13.590;2023-03-14T11:44:20;13.55;68.64
71627;DHT22;59475;52.464;13.590;2023-03-14T11:49:53;13.52;68.99
71627;DHT22;59475;52.464;13.590;2023-03-14T11:52:29;13.53;69.40
71627;DHT22;59475;52.464;13.590;2023-03-14T11:57:51;13.59;69.52
71627;DHT22;59475;52.464;13.590;2023-03-14T12:00:20;13.55;69.72
71627;DHT22;59475;52.464;13.590;2023-03-14T12:03:17;13.42;71.76
71627;DHT22;59475;52.464;13.590;2023-03-14T12:11:06;12.64;79.05
71627;DHT22;59475;52.464;13.590;2023-03-14T12:13:37;12.65;80.50
71627;DHT22;59475;52.464;13.590;2023-03-14T12:16:08;12.53;79.52
71627;DHT22;59475;52.464;13.590;2023-03-14T12:18:43;12.43;80.15
71627;DHT22;59475;52.464;13.590;2023-03-14T12:21:12;12.29;81.61
71627;DHT22;59475;52.464;13.590;2023-03-14T12:23:52;12.26;81.14
71627;DHT22;59475;52.464;13.590;2023-03-14T12:26:23;12.25;80.76
71627;DHT22;59475;52.464;13.590;2023-03-14T12:34:27;12.40;80.71
71627;DHT22;59475;52.464;13.590;2023-03-14T12:42:37;12.70;78.68
71627;DHT22;59475;52.464;13.590;2023-03-14T12:45:41;12.81;76.96
71627;DHT22;59475;52.464;13.590;2023-03-14T12:48:20;12.88;76.52
71627;DHT22;59475;52.464;13.590;2023-03-14T12:50:55;12.95;76.40
71627;DHT22;59475;52.464;13.590;2023-03-14T13:01:47;13.47;76.13
71627;DHT22;59475;52.464;13.590;2023-03-14T13:04:13;13.49;75.27
71627;DHT22;59475;52.464;13.590;2023-03-14T13:06:56;13.53;73.49
71627;DHT22;59475;52.464;13.590;2023-03-14T13:11:52;13.50;73.09
71627;DHT22;59475;52.464;13.590;2023-03-14T13:14:18;13.52;72.29
71627;DHT22;59475;52.464;13.590;2023-03-14T13:16:44;13.55;72.83
71627;DHT22;59475;52.464;13.590;2023-03-14T13:19:17;13.50;73.09
71627;DHT22;59475;52.464;13.590;2023-03-14T13:21:44;13.30;74.47
71627;DHT22;59475;52.464;13.590;2023-03-14T13:24:23;13.26;75.59
71627;DHT22;59475;52.464;13.590;2023-03-14T13:26:49;13.29;73.81
71627;DHT22;59475;52.464;13.590;2023-03-14T13:29:23;13.40;73.62
71627;DHT22;59475;52.464;13.590;2023-03-14T13:31:56;13.50;72.57
71627;DHT22;59475;52.464;13.590;2023-03-14T13:34:32;13.56;70.53
71627;DHT22;59475;52.464;13.590;2023-03-14T13:36:58;13.55;71.38
71627;DHT22;59475;52.464;13.590;2023-03-14T13:39:25;13.63;71.43
71627;DHT22;59475;52.464;13.590;2023-03-14T13:41:54;13.73;71.74
71627;DHT22;59475;52.464;13.590;2023-03-14T13:44:27;13.63;72.49
71627;DHT22;59475;52.464;13.590;2023-03-14T13:47:03;13.78;73.73
71627;DHT22;59475;52.464;13.590;2023-03-14T13:49:31;14.01;73.59
71627;DHT22;59475;52.464;13.590;2023-03-14T13:51:59;14.07;73.74
71627;DHT22;59475;52.464;13.590;2023-03-14T13:54:26;14.07;73.19
71627;DHT22;59475;52.464;13.590;2023-03-14T13:57:01;13.77;73.03
71627;DHT22;59475;52.464;13.590;2023-03-14T13:59:31;13.66;74.10
71627;DHT22;59475;52.464;13.590;2023-03-14T14:02:12;13.57;74.26
71627;DHT22;59475;52.464;13.590;2023-03-14T14:04:38;13.50;74.92
71627;DHT22;59475;52.464;13.590;2023-03-14T14:07:08;13.35;74.95
71627;DHT22;59475;52.464;13.590;2023-03-14T14:09:46;13.22;75.88
71627;DHT22;59475;52.464;13.590;2023-03-14T14:12:16;13.21;76.37
71627;DHT22;59475;52.464;13.590;2023-03-14T14:14:49;13.18;76.38
71627;DHT22;59475;52.464;13.590;2023-03-14T14:17:39;13.14;75.96
71627;DHT22;59475;52.464;13.590;2023-03-14T14:20:20;13.22;76.34
71627;DHT22;59475;52.464;13.590;2023-03-14T14:22:46;13.29;76.44
71627;DHT22;59475;52.464;13.590;2023-03-14T14:25:15;13.32;76.19
71627;DHT22;59475;52.464;13.590;2023-03-14T14:27:43;13.42;75.47
71627;DHT22;59475;52.464;13.590;2023-03-14T14:32:44;13.45;75.08
71627;DHT22;59475;52.464;13.590;2023-03-14T14:35:22;13.60;72.83
71627;DHT22;59475;52.464;13.590;2023-03-14T14:37:48;13.56;71.99
71627;DHT22;59475;52.464;13.590;2023-03-14T14:40:22;13.56;72.80
71627;DHT22;59475;52.464;13.590;2023-03-14T14:42:49;13.69;72.52
71627;DHT22;59475;52.464;13.590;2023-03-14T14:45:20;13.66;71.88
71627;DHT22;59475;52.464;13.590;2023-03-14T14:48:13;13.56;72.21
71627;DHT22;59475;52.464;13.590;2023-03-14T14:51:09;13.50;72.46
71627;DHT22;59475;52.464;13.590;2023-03-14T14:56:25;13.39;72.90
71627;DHT22;59475;52.464;13.590;2023-03-14T14:58:57;13.39;73.10
71627;DHT22;59475;52.464;13.590;2023-03-14T15:01:24;13.38;73.36
71627;DHT22;59475;52.464;13.590;2023-03-14T15:03:52;13.34;73.26
71627;DHT22;59475;52.464;13.590;2023-03-14T15:06:20;13.26;73.65
71627;DHT22;59475;52.464;13.590;2023-03-14T15:08:47;13.25;74.16
71627;DHT22;59475;52.464;13.590;2023-03-14T15:11:17;13.21;74.44
71627;DHT22;59475;52.464;13.590;2023-03-14T15:13:43;13.22;74.60
71627;DHT22;59475;52.464;13.590;2023-03-14T15:16:10;13.23;74.21
71627;DHT22;59475;52.464;13.590;2023-03-14T15:18:36;13.25;74.49
71627;DHT22;59475;52.464;13.590;2023-03-14T15:21:02;13.22;74.31
71627;DHT22;59475;52.464;13.590;2023-03-14T15:23:27;13.23;74.49
71627;DHT22;59475;52.464;13.590;2023-03-14T15:25:53;13.18;74.65
71627;DHT22;59475;52.464;13.590;2023-03-14T15:28:24;13.18;74.80
71627;DHT22;59475;52.464;13.590;2023-03-14T15:30:52;13.12;75.14
71627;DHT22;59475;52.464;13.590;2023-03-14T15:33:18;13.02;76.26
71627;DHT22;59475;52.464;13.590;2023-03-14T15:35:44;11.60;77.88
71627;DHT22;59475;52.464;13.590;2023-03-14T15:38:14;9.95;84.37
71627;DHT22;59475;52.464;13.590;2023-03-14T15:40:40;8.57;87.43
71627;DHT22;59475;52.464;13.590;2023-03-14T15:43:06;7.92;90.06
71627;DHT22;59475;52.464;13.590;2023-03-14T15:45:32;7.58;90.60
71627;DHT22;59475;52.464;13.590;2023-03-14T15:47:57;7.14;90.19
71627;DHT22;59475;52.464;13.590;2023-03-14T15:50:23;6.83;90.77
71627;DHT22;59475;52.464;13.590;2023-03-14T15:52:48;6.59;91.37
71627;DHT22;59475;52.464;13.590;2023-03-14T15:55:14;6.24;90.77
71627;DHT22;59475;52.464;13.590;2023-03-14T15:57:40;5.40;89.77
71627;DHT22;59475;52.464;13.590;2023-03-14T16:00:14;4.71;90.21
71627;DHT22;59475;52.464;13.590;2023-03-14T16:02:40;4.34;90.58
71627;DHT22;59475;52.464;13.590;2023-03-14T16:05:09;4.16;90.71
71627;DHT22;59475;52.464;13.590;2023-03-14T16:07:35;3.96;91.16
71627;DHT22;59475;52.464;13.590;2023-03-14T16:10:01;3.76;91.05
71627;DHT22;59475;52.464;13.590;2023-03-14T16:12:26;3.64;91.23
71627;DHT22;59475;52.464;13.590;2023-03-14T16:14:51;3.44;91.15
71627;DHT22;59475;52.464;13.590;2023-03-14T16:17:17;3.41;91.75
71627;DHT22;59475;52.464;13.590;2023-03-14T16:19:42;3.37;91.92
71627;DHT22;59475;52.464;13.590;2023-03-14T16:22:08;3.14;91.86